createdAt,value
2023-04-09T00:02:19.908Z,73.46
2023-04-09T00:04:43.808Z,73.58
2023-04-09T00:07:09.143Z,73.02
2023-04-09T00:09:33.172Z,73.49
2023-04-09T00:11:58.303Z,74.17
2023-04-09T00:14:22.071Z,74.56
2023-04-09T00:16:45.867Z,74.81
2023-04-09T00:19:09.669Z,74.33
2023-04-09T00:21:33.429Z,74.75
2023-04-09T00:23:58.554Z,74.48
2023-04-09T00:26:22.640Z,75.29
2023-04-09T00:28:46.339Z,74.33
2023-04-09T00:31:10.906Z,74.64
2023-04-09T00:33:34.550Z,74.93
2023-04-09T00:35:58.272Z,75.94
2023-04-09T00:38:22.000Z,75.59
2023-04-09T00:40:51.319Z,76.08
2023-04-09T00:43:14.915Z,75.71
2023-04-09T00:45:39.272Z,75.92
2023-04-09T00:48:03.148Z,75.60
2023-04-09T00:50:27.066Z,75.76
2023-04-09T00:52:50.787Z,75.67
2023-04-09T00:55:15.063Z,75.54
2023-04-09T00:57:40.396Z,76.23
2023-04-09T01:00:04.974Z,77.18
2023-04-09T01:02:29.046Z,76.13
2023-04-09T01:04:53.095Z,76.05
2023-04-09T01:07:28.804Z,77.09
2023-04-09T01:10:00.555Z,79.08
2023-04-09T01:12:34.129Z,77.36
2023-04-09T01:15:07.548Z,76.56
2023-04-09T01:17:37.309Z,77.81
2023-04-09T01:20:06.790Z,78.44
2023-04-09T01:22:49.569Z,77.33
2023-04-09T01:25:31.086Z,77.48
2023-04-09T01:28:27.320Z,79.49
2023-04-09T01:30:55.257Z,79.93
2023-04-09T01:33:21.811Z,77.80
2023-04-09T01:35:48.493Z,77.53
2023-04-09T01:38:14.411Z,77.92
2023-04-09T01:40:38.677Z,78.65
2023-04-09T01:43:04.209Z,78.21
2023-04-09T01:45:29.510Z,77.77
2023-04-09T01:47:54.399Z,79.33
2023-04-09T01:50:18.409Z,78.90
2023-04-09T01:52:42.418Z,78.75
2023-04-09T01:55:07.516Z,78.19
2023-04-09T01:57:32.170Z,78.97
2023-04-09T01:59:56.671Z,79.05
2023-04-09T02:02:35.565Z,80.12
2023-04-09T02:05:03.479Z,81.53
2023-04-09T02:07:37.225Z,83.34
2023-04-09T02:10:02.671Z,82.29
2023-04-09T02:12:27.286Z,81.62
2023-04-09T02:14:53.673Z,82.13
2023-04-09T02:17:17.372Z,83.20
2023-04-09T02:19:44.723Z,85.21
2023-04-09T02:22:08.508Z,86.97
2023-04-09T02:24:32.258Z,90.33
2023-04-09T02:26:55.943Z,88.72
2023-04-09T02:29:19.666Z,90.23
2023-04-09T02:31:43.428Z,91.41
2023-04-09T02:34:07.188Z,92.99
2023-04-09T02:36:32.344Z,92.28
2023-04-09T02:38:56.061Z,92.68
2023-04-09T02:41:19.762Z,93.98
2023-04-09T02:43:43.505Z,91.73
2023-04-09T02:46:08.466Z,92.21
2023-04-09T02:48:33.111Z,92.48
2023-04-09T02:50:56.858Z,90.28
2023-04-09T02:53:22.849Z,91.88
2023-04-09T02:55:46.499Z,92.45
2023-04-09T02:58:10.239Z,90.67
2023-04-09T03:00:34.046Z,92.69
2023-04-09T03:02:58.248Z,94.04
2023-04-09T03:05:22.211Z,92.66
2023-04-09T03:07:47.400Z,91.90
2023-04-09T03:10:12.959Z,90.45
2023-04-09T03:12:37.228Z,91.07
2023-04-09T03:15:01.330Z,91.86
2023-04-09T03:17:27.165Z,91.07
2023-04-09T03:19:50.932Z,88.45
2023-04-09T03:22:15.107Z,90.21
2023-04-09T03:24:38.755Z,92.34
2023-04-09T03:27:04.845Z,92.81
2023-04-09T03:29:29.644Z,92.18
2023-04-09T03:31:53.933Z,92.09
2023-04-09T03:34:17.626Z,91.10
2023-04-09T03:36:44.284Z,90.00
2023-04-09T03:39:14.884Z,92.16
2023-04-09T03:41:40.752Z,92.18
2023-04-09T03:44:09.724Z,91.47
2023-04-09T03:46:43.845Z,91.75
2023-04-09T03:49:11.306Z,89.15
2023-04-09T03:51:38.922Z,90.65
2023-04-09T03:54:03.048Z,91.58
2023-04-09T03:56:27.362Z,93.00
2023-04-09T03:58:51.650Z,93.00
2023-04-09T04:01:21.761Z,89.59
2023-04-09T04:03:51.379Z,91.41
2023-04-09T04:06:23.140Z,90.98
2023-04-09T04:09:17.834Z,90.07
2023-04-09T04:11:50.199Z,92.01
2023-04-09T04:14:15.709Z,90.64
2023-04-09T04:16:44.096Z,87.56
2023-04-09T04:19:10.423Z,89.56
2023-04-09T04:21:41.161Z,89.23
2023-04-09T04:24:06.048Z,90.64
2023-04-09T04:26:29.721Z,89.24
2023-04-09T04:28:54.620Z,89.55
2023-04-09T04:31:41.320Z,90.17
2023-04-09T04:34:06.976Z,91.91
2023-04-09T04:36:30.801Z,91.82
2023-04-09T04:38:54.743Z,91.78
2023-04-09T04:41:34.173Z,91.35
2023-04-09T04:44:06.581Z,90.25
2023-04-09T04:46:30.402Z,90.61
2023-04-09T04:48:54.386Z,93.39
2023-04-09T04:51:20.872Z,93.18
2023-04-09T04:53:56.783Z,92.71
2023-04-09T04:56:20.642Z,91.58
2023-04-09T04:58:54.552Z,94.86
2023-04-09T05:01:19.243Z,94.04
2023-04-09T05:03:43.802Z,93.35
2023-04-09T05:06:23.034Z,93.64
2023-04-09T05:08:46.886Z,93.98
2023-04-09T05:11:15.237Z,95.13
2023-04-09T05:13:40.182Z,96.12
2023-04-09T05:16:07.539Z,94.54
2023-04-09T05:18:33.084Z,93.14
2023-04-09T05:20:56.737Z,93.01
2023-04-09T05:23:23.326Z,94.26
2023-04-09T05:25:47.071Z,94.91
2023-04-09T05:28:19.210Z,94.86
2023-04-09T05:30:48.566Z,96.01
2023-04-09T05:33:14.444Z,97.16
2023-04-09T05:35:41.056Z,95.21
2023-04-09T05:38:04.888Z,93.91
2023-04-09T05:40:30.172Z,93.93
2023-04-09T05:42:53.888Z,94.27
2023-04-09T05:45:30.193Z,92.89
2023-04-09T05:47:54.092Z,92.16
2023-04-09T05:50:19.735Z,91.75
2023-04-09T05:52:45.707Z,92.19
2023-04-09T05:55:11.606Z,91.40
2023-04-09T05:57:57.277Z,90.86
2023-04-09T06:00:21.829Z,91.25
2023-04-09T06:02:46.941Z,90.49
2023-04-09T06:05:11.514Z,91.10
2023-04-09T06:07:35.425Z,90.30
2023-04-09T06:09:59.970Z,90.54
2023-04-09T06:12:24.649Z,90.22
2023-04-09T06:14:50.742Z,89.73
2023-04-09T06:17:14.342Z,89.94
2023-04-09T06:19:38.470Z,89.20
2023-04-09T06:22:02.507Z,89.32
2023-04-09T06:24:26.756Z,88.96
2023-04-09T06:26:50.564Z,89.34
2023-04-09T06:29:14.221Z,89.32
2023-04-09T06:31:39.583Z,89.23
2023-04-09T06:34:03.403Z,88.44
2023-04-09T06:36:28.075Z,88.84
2023-04-09T06:38:52.343Z,88.38
2023-04-09T06:41:16.206Z,88.17
2023-04-09T06:43:39.875Z,87.55
2023-04-09T06:46:03.493Z,89.04
2023-04-09T06:48:28.611Z,87.55
2023-04-09T06:50:52.256Z,88.32
2023-04-09T06:53:17.673Z,85.88
2023-04-09T06:55:41.431Z,86.31
2023-04-09T06:58:05.126Z,87.50
2023-04-09T07:00:28.743Z,86.78
2023-04-09T07:02:53.620Z,87.32
2023-04-09T07:05:19.146Z,87.49
2023-04-09T07:07:42.835Z,88.64
2023-04-09T07:10:07.785Z,88.71
2023-04-09T07:12:33.435Z,87.56
2023-04-09T07:15:00.219Z,90.53
2023-04-09T07:17:24.105Z,91.55
2023-04-09T07:19:47.721Z,90.10
2023-04-09T07:22:12.768Z,88.92
2023-04-09T07:24:36.467Z,87.34
2023-04-09T07:27:00.193Z,87.05
2023-04-09T07:29:23.790Z,87.38
2023-04-09T07:31:47.937Z,86.56
2023-04-09T07:34:11.627Z,85.23
2023-04-09T07:36:35.260Z,86.68
2023-04-09T07:39:00.353Z,87.62
2023-04-09T07:41:24.304Z,85.98
2023-04-09T07:43:48.133Z,86.25
2023-04-09T07:46:11.981Z,87.13
2023-04-09T07:48:36.004Z,86.67
2023-04-09T07:50:59.775Z,86.86
2023-04-09T07:53:23.380Z,86.48
2023-04-09T07:55:48.502Z,86.08
2023-04-09T07:58:12.160Z,86.43
2023-04-09T08:00:36.068Z,86.31
2023-04-09T08:03:00.700Z,86.02
2023-04-09T08:05:24.796Z,85.57
2023-04-09T08:07:48.555Z,87.44
2023-04-09T08:10:15.262Z,87.53
2023-04-09T08:12:40.476Z,86.43
2023-04-09T08:15:04.811Z,86.99
2023-04-09T08:17:28.521Z,85.29
2023-04-09T08:19:53.042Z,85.23
2023-04-09T08:22:16.725Z,85.52
2023-04-09T08:24:40.465Z,87.16
2023-04-09T08:27:04.728Z,87.33
2023-04-09T08:29:32.169Z,87.26
2023-04-09T08:31:56.449Z,87.28
2023-04-09T08:34:22.271Z,87.14
2023-04-09T08:36:48.232Z,86.02
2023-04-09T08:39:12.446Z,85.70
2023-04-09T08:41:38.214Z,87.34
2023-04-09T08:44:02.125Z,86.45
2023-04-09T08:46:27.781Z,84.03
2023-04-09T08:48:53.634Z,84.26
2023-04-09T08:51:18.665Z,84.94
2023-04-09T08:53:46.474Z,84.15
2023-04-09T08:56:10.106Z,84.44
2023-04-09T08:58:33.980Z,83.04
2023-04-09T09:00:57.630Z,84.48
2023-04-09T09:03:22.948Z,83.17
2023-04-09T09:05:47.989Z,84.61
2023-04-09T09:08:13.786Z,84.50
2023-04-09T09:10:43.099Z,82.34
2023-04-09T09:13:19.834Z,82.38
2023-04-09T09:15:44.109Z,83.68
2023-04-09T09:18:08.651Z,83.61
2023-04-09T09:20:34.560Z,83.37
2023-04-09T09:22:58.806Z,82.40
2023-04-09T09:25:24.910Z,82.36
2023-04-09T09:27:49.052Z,81.92
2023-04-09T09:30:23.859Z,82.30
2023-04-09T09:32:47.685Z,82.21
2023-04-09T09:35:11.481Z,82.29
2023-04-09T09:37:36.812Z,80.69
2023-04-09T09:40:01.058Z,80.19
2023-04-09T09:42:24.949Z,81.09
2023-04-09T09:44:49.501Z,81.63
2023-04-09T09:47:14.685Z,79.81
2023-04-09T09:49:38.362Z,81.53
2023-04-09T09:52:04.026Z,81.11
2023-04-09T09:54:32.839Z,79.88
2023-04-09T09:57:01.036Z,79.56
2023-04-09T09:59:28.317Z,78.53
2023-04-09T10:01:59.608Z,78.90
2023-04-09T10:04:25.585Z,79.18
2023-04-09T10:06:52.875Z,78.52
2023-04-09T10:09:17.588Z,78.54
2023-04-09T10:11:45.697Z,77.02
2023-04-09T10:14:09.687Z,77.44
2023-04-09T10:16:34.898Z,78.78
2023-04-09T10:19:00.545Z,80.67
2023-04-09T10:21:38.439Z,80.45
2023-04-09T10:24:05.826Z,79.24
2023-04-09T10:26:30.937Z,77.54
2023-04-09T10:29:11.748Z,79.31
2023-04-09T10:32:04.773Z,78.38
2023-04-09T10:34:29.515Z,77.43
2023-04-09T10:36:57.330Z,78.82
2023-04-09T10:39:21.538Z,76.87
2023-04-09T10:41:48.877Z,77.40
2023-04-09T10:44:24.364Z,75.29
2023-04-09T10:46:48.415Z,75.86
2023-04-09T10:49:13.852Z,75.71
2023-04-09T10:51:39.117Z,74.37
2023-04-09T10:54:02.849Z,74.79
2023-04-09T10:56:26.513Z,73.80
2023-04-09T10:58:50.485Z,74.28
2023-04-09T11:01:24.313Z,71.49
2023-04-09T11:04:10.609Z,71.76
2023-04-09T11:06:37.268Z,71.14
2023-04-09T11:09:03.916Z,70.69
2023-04-09T11:11:28.162Z,72.82
2023-04-09T11:13:51.937Z,73.15
2023-04-09T11:16:22.696Z,70.54
2023-04-09T11:18:49.076Z,73.04
2023-04-09T11:21:14.344Z,71.57
2023-04-09T11:23:38.505Z,70.96
2023-04-09T11:26:03.025Z,71.49
2023-04-09T11:28:27.755Z,68.41
2023-04-09T11:30:52.883Z,69.53
2023-04-09T11:33:20.047Z,67.97
2023-04-09T11:35:44.456Z,66.63
2023-04-09T11:38:09.159Z,67.43
2023-04-09T11:40:32.949Z,64.52
2023-04-09T11:42:57.836Z,65.29
2023-04-09T11:45:23.991Z,62.19
2023-04-09T11:47:48.421Z,63.38
2023-04-09T11:50:15.483Z,63.40
2023-04-09T11:52:41.352Z,63.75
2023-04-09T11:55:05.633Z,62.47
2023-04-09T11:57:43.034Z,64.34
2023-04-09T12:00:12.211Z,62.48
2023-04-09T12:02:39.443Z,61.73
2023-04-09T12:05:05.633Z,62.75
2023-04-09T12:07:39.572Z,61.19
2023-04-09T12:10:10.214Z,62.03
2023-04-09T12:12:41.379Z,60.69
2023-04-09T12:15:19.339Z,60.58
2023-04-09T12:17:43.005Z,61.77
2023-04-09T12:20:09.894Z,63.65
2023-04-09T12:22:33.537Z,58.34
2023-04-09T12:24:58.481Z,59.75
2023-04-09T12:27:22.181Z,58.13
2023-04-09T12:29:45.712Z,61.22
2023-04-09T12:32:09.384Z,61.62
2023-04-09T12:34:32.929Z,57.87
2023-04-09T12:36:56.634Z,60.29
2023-04-09T12:39:20.923Z,59.90
2023-04-09T12:41:45.899Z,58.30
2023-04-09T12:44:09.522Z,57.28
2023-04-09T12:46:33.151Z,56.21
2023-04-09T12:48:56.775Z,57.20
2023-04-09T12:51:20.633Z,57.77
2023-04-09T12:53:44.201Z,58.19
2023-04-09T12:56:09.178Z,59.27
2023-04-09T12:58:34.592Z,60.33
2023-04-09T13:00:58.189Z,58.33
2023-04-09T13:03:21.871Z,55.51
2023-04-09T13:05:45.676Z,59.85
2023-04-09T13:08:09.189Z,54.84
2023-04-09T13:10:33.307Z,57.56
2023-04-09T13:12:56.905Z,54.84
2023-04-09T13:15:22.122Z,56.22
2023-04-09T13:17:45.935Z,53.79
2023-04-09T13:20:10.970Z,54.88
2023-04-09T13:22:34.498Z,55.33
2023-04-09T13:24:58.090Z,54.64
2023-04-09T13:27:22.152Z,55.04
2023-04-09T13:29:45.751Z,56.30
2023-04-09T13:32:11.375Z,54.96
2023-04-09T13:34:36.015Z,55.37
2023-04-09T13:36:59.533Z,53.79
2023-04-09T13:39:23.148Z,54.47
2023-04-09T13:41:46.846Z,56.49
2023-04-09T13:44:10.471Z,56.25
2023-04-09T13:46:34.451Z,53.52
2023-04-09T13:48:59.533Z,53.52
2023-04-09T13:51:23.283Z,53.16
2023-04-09T13:53:48.238Z,52.62
2023-04-09T13:56:11.936Z,56.45
2023-04-09T13:58:35.498Z,53.78
2023-04-09T14:00:59.348Z,51.76
2023-04-09T14:03:23.936Z,53.88
2023-04-09T14:05:49.215Z,54.01
2023-04-09T14:08:13.079Z,53.03
2023-04-09T14:10:37.723Z,50.22
2023-04-09T14:13:02.169Z,51.29
2023-04-09T14:15:25.994Z,52.48
2023-04-09T14:17:49.660Z,55.06
2023-04-09T14:20:13.448Z,50.22
2023-04-09T14:22:38.481Z,50.97
2023-04-09T14:25:02.094Z,53.41
2023-04-09T14:27:25.955Z,54.69
2023-04-09T14:29:49.555Z,53.39
2023-04-09T14:32:13.199Z,53.72
2023-04-09T14:34:36.820Z,54.67
2023-04-09T14:37:00.518Z,53.88
2023-04-09T14:39:25.583Z,53.44
2023-04-09T14:41:49.285Z,53.42
2023-04-09T14:44:12.925Z,53.75
2023-04-09T14:46:37.821Z,54.39
2023-04-09T14:49:01.427Z,54.05
2023-04-09T14:51:25.036Z,52.78
2023-04-09T14:53:48.663Z,54.46
2023-04-09T14:56:13.601Z,56.59
2023-04-09T14:58:37.405Z,55.57
2023-04-09T15:01:01.160Z,55.93
2023-04-09T15:03:25.034Z,57.34
2023-04-09T15:05:49.148Z,56.55
2023-04-09T15:08:12.679Z,56.18
2023-04-09T15:10:38.077Z,56.19
2023-04-09T15:13:03.042Z,55.52
2023-04-09T15:15:27.777Z,55.87
2023-04-09T15:17:51.515Z,56.37
2023-04-09T15:20:15.211Z,57.91
2023-04-09T15:22:38.765Z,56.80
2023-04-09T15:25:02.413Z,56.58
2023-04-09T15:27:26.268Z,56.66
2023-04-09T15:29:51.867Z,56.53
2023-04-09T15:32:15.430Z,56.79
2023-04-09T15:34:39.155Z,55.55
2023-04-09T15:37:02.734Z,55.55
2023-04-09T15:39:28.352Z,55.37
2023-04-09T15:41:52.290Z,56.11
2023-04-09T15:44:15.955Z,54.32
2023-04-09T15:46:40.946Z,55.09
2023-04-09T15:49:05.147Z,55.51
2023-04-09T15:51:28.662Z,54.40
2023-04-09T15:53:52.245Z,53.74
2023-04-09T15:56:16.257Z,54.70
2023-04-09T15:58:39.804Z,54.98
2023-04-09T16:01:08.454Z,54.10
2023-04-09T16:03:37.125Z,54.31
2023-04-09T16:06:03.897Z,55.68
2023-04-09T16:08:27.577Z,54.81
2023-04-09T16:10:51.160Z,54.49
2023-04-09T16:13:14.708Z,54.82
2023-04-09T16:15:38.213Z,54.96
2023-04-09T16:18:01.831Z,54.66
2023-04-09T16:20:26.824Z,55.17
2023-04-09T16:22:50.673Z,55.55
2023-04-09T16:25:14.249Z,54.54
2023-04-09T16:27:37.868Z,55.17
2023-04-09T16:30:01.419Z,56.52
2023-04-09T16:32:25.458Z,57.01
2023-04-09T16:34:49.046Z,57.79
2023-04-09T16:37:14.063Z,57.03
2023-04-09T16:39:38.054Z,57.45
2023-04-09T16:42:01.757Z,57.86
2023-04-09T16:44:25.617Z,58.00
2023-04-09T16:46:49.246Z,58.76
2023-04-09T16:49:12.826Z,59.05
2023-04-09T16:51:36.465Z,59.78
2023-04-09T16:54:01.453Z,59.57
2023-04-09T16:56:25.059Z,59.94
2023-04-09T16:58:48.583Z,59.73
2023-04-09T17:01:12.243Z,60.60
2023-04-09T17:03:35.986Z,60.30
2023-04-09T17:05:59.609Z,60.36
2023-04-09T17:08:24.526Z,60.61
2023-04-09T17:10:49.537Z,60.98
2023-04-09T17:13:13.261Z,61.75
2023-04-09T17:15:37.787Z,62.27
2023-04-09T17:18:01.629Z,61.89
2023-04-09T17:20:26.096Z,61.80
2023-04-09T17:22:49.670Z,61.78
2023-04-09T17:25:13.429Z,60.69
2023-04-09T17:27:38.368Z,59.80
2023-04-09T17:30:02.127Z,59.96
2023-04-09T17:32:26.095Z,60.00
2023-04-09T17:34:50.594Z,60.27
2023-04-09T17:37:14.156Z,60.93
2023-04-09T17:39:37.750Z,61.12
2023-04-09T17:42:03.366Z,60.99
2023-04-09T17:44:28.410Z,60.81
2023-04-09T17:46:52.040Z,60.90
2023-04-09T17:49:15.625Z,61.20
2023-04-09T17:51:39.390Z,61.60
2023-04-09T17:54:02.970Z,61.52
2023-04-09T17:56:27.140Z,62.83
2023-04-09T17:58:50.913Z,62.69
2023-04-09T18:01:16.260Z,63.50
2023-04-09T18:03:40.569Z,64.48
2023-04-09T18:06:04.260Z,64.59
2023-04-09T18:08:27.983Z,64.10
2023-04-09T18:11:04.916Z,64.97
2023-04-09T18:13:34.829Z,65.41
2023-04-09T18:15:58.364Z,65.87
2023-04-09T18:18:23.358Z,66.67
2023-04-09T18:20:49.800Z,66.44
2023-04-09T18:23:13.521Z,66.64
2023-04-09T18:25:37.597Z,67.29
2023-04-09T18:28:01.171Z,67.20
2023-04-09T18:30:26.250Z,66.69
2023-04-09T18:32:49.886Z,67.09
2023-04-09T18:35:15.115Z,67.70
2023-04-09T18:37:38.773Z,68.42
2023-04-09T18:40:02.762Z,68.83
2023-04-09T18:42:26.719Z,68.19
2023-04-09T18:44:50.408Z,68.44
2023-04-09T18:47:13.986Z,69.24
2023-04-09T18:49:37.958Z,69.13
2023-04-09T18:52:05.462Z,69.70
2023-04-09T18:54:29.100Z,70.03
2023-04-09T18:56:52.739Z,69.77
2023-04-09T18:59:16.524Z,69.26
2023-04-09T19:01:40.472Z,70.26
2023-04-09T19:04:04.187Z,71.14
2023-04-09T19:06:27.999Z,70.98
2023-04-09T19:08:58.022Z,71.59
2023-04-09T19:11:21.776Z,72.43
2023-04-09T19:13:45.414Z,72.75
2023-04-09T19:16:09.757Z,71.66
2023-04-09T19:18:34.324Z,71.55
2023-04-09T19:20:57.956Z,70.91
2023-04-09T19:23:21.487Z,70.86
2023-04-09T19:25:46.493Z,72.80
2023-04-09T19:28:10.112Z,72.77
2023-04-09T19:30:33.778Z,72.51
2023-04-09T19:32:57.378Z,73.73
2023-04-09T19:35:21.133Z,73.50
2023-04-09T19:37:44.900Z,73.83
2023-04-09T19:40:10.450Z,74.02
2023-04-09T19:42:35.365Z,73.55
2023-04-09T19:44:58.945Z,73.13
2023-04-09T19:47:22.578Z,74.28
2023-04-09T19:49:46.154Z,73.92
2023-04-09T19:52:09.838Z,73.46
2023-04-09T19:54:33.443Z,73.55
2023-04-09T19:56:57.703Z,73.42
2023-04-09T19:59:22.686Z,74.21
2023-04-09T20:01:48.024Z,74.93
2023-04-09T20:04:12.142Z,75.16
2023-04-09T20:06:35.703Z,75.16
2023-04-09T20:08:59.442Z,74.99
2023-04-09T20:11:22.960Z,74.71
2023-04-09T20:13:47.920Z,74.75
2023-04-09T20:16:12.883Z,74.84
2023-04-09T20:18:36.446Z,75.80
2023-04-09T20:20:59.965Z,76.40
2023-04-09T20:23:23.555Z,76.46
2023-04-09T20:25:47.146Z,77.15
2023-04-09T20:28:10.965Z,77.06
2023-04-09T20:30:34.568Z,75.26
2023-04-09T20:32:59.819Z,75.78
2023-04-09T20:35:23.417Z,76.97
2023-04-09T20:37:48.433Z,77.05
2023-04-09T20:40:13.783Z,75.84
2023-04-09T20:42:37.347Z,75.67
2023-04-09T20:45:01.823Z,76.26
2023-04-09T20:47:25.970Z,77.04
2023-04-09T20:49:51.214Z,78.04
2023-04-09T20:52:15.341Z,76.41
2023-04-09T20:54:39.304Z,75.79
2023-04-09T20:57:03.870Z,75.75
2023-04-09T20:59:27.629Z,78.39
2023-04-09T21:01:51.491Z,77.88
2023-04-09T21:04:15.827Z,78.83
2023-04-09T21:06:41.288Z,78.37
2023-04-09T21:09:04.903Z,78.23
2023-04-09T21:11:28.614Z,77.33
2023-04-09T21:13:55.092Z,78.53
2023-04-09T21:16:19.353Z,79.81
2023-04-09T21:18:42.879Z,78.72
2023-04-09T21:21:08.676Z,78.78
2023-04-09T21:23:33.619Z,78.32
2023-04-09T21:25:57.576Z,79.67
2023-04-09T21:28:21.109Z,80.90
2023-04-09T21:30:44.772Z,79.63
2023-04-09T21:33:10.012Z,78.53
2023-04-09T21:35:33.842Z,78.74
2023-04-09T21:37:57.594Z,78.88
2023-04-09T21:40:23.365Z,78.19
2023-04-09T21:42:47.124Z,78.11
2023-04-09T21:45:11.842Z,78.92
2023-04-09T21:47:35.520Z,79.51
2023-04-09T21:49:59.431Z,79.32
2023-04-09T21:52:23.258Z,78.93
2023-04-09T21:54:46.921Z,78.82
2023-04-09T21:57:12.389Z,79.76
2023-04-09T21:59:37.142Z,80.93
2023-04-09T22:02:00.768Z,79.09
2023-04-09T22:04:24.505Z,78.62
2023-04-09T22:06:48.073Z,79.03
2023-04-09T22:09:11.625Z,79.89
2023-04-09T22:11:35.338Z,80.24
2023-04-09T22:14:00.369Z,79.44
2023-04-09T22:16:24.222Z,78.82
2023-04-09T22:18:47.985Z,80.18
2023-04-09T22:21:16.524Z,80.15
2023-04-09T22:23:40.118Z,81.03
2023-04-09T22:26:04.319Z,79.63
2023-04-09T22:28:29.170Z,79.52
2023-04-09T22:30:55.105Z,79.36
2023-04-09T22:33:18.792Z,79.73
2023-04-09T22:35:42.292Z,80.76
2023-04-09T22:38:06.627Z,80.39
2023-04-09T22:40:30.226Z,80.93
2023-04-09T22:42:53.789Z,79.94
2023-04-09T22:45:17.309Z,80.83
2023-04-09T22:47:42.424Z,79.97
2023-04-09T22:50:07.233Z,80.07
2023-04-09T22:52:30.804Z,80.67
2023-04-09T22:54:54.379Z,81.57
2023-04-09T22:57:17.916Z,81.16
2023-04-09T22:59:41.412Z,80.36
2023-04-09T23:02:05.046Z,80.12
2023-04-09T23:04:30.093Z,80.77
2023-04-09T23:06:54.596Z,80.01
2023-04-09T23:09:18.159Z,80.19
2023-04-09T23:11:41.728Z,80.34
2023-04-09T23:14:05.226Z,80.04
2023-04-09T23:16:28.863Z,80.03
2023-04-09T23:18:52.640Z,79.30
2023-04-09T23:21:17.818Z,80.76
2023-04-09T23:23:41.397Z,80.39
2023-04-09T23:26:05.913Z,80.20
2023-04-09T23:28:29.937Z,81.00
2023-04-09T23:30:53.657Z,80.81
2023-04-09T23:33:17.202Z,80.65
2023-04-09T23:35:41.692Z,80.86
2023-04-09T23:38:06.830Z,79.45
2023-04-09T23:40:30.440Z,80.49
2023-04-09T23:42:54.137Z,79.90
2023-04-09T23:45:17.815Z,80.77
2023-04-09T23:47:42.375Z,80.54
2023-04-09T23:50:08.435Z,80.20
2023-04-09T23:52:32.570Z,79.96
2023-04-09T23:54:57.587Z,80.84
2023-04-09T23:57:21.884Z,81.40
2023-04-09T23:59:45.519Z,81.97
